createdAt,value
2017-02-18T10:31:22.400Z,1020.33
2017-02-18T10:32:03.821Z,1020.32
2017-02-18T10:32:44.396Z,1020.33
2017-02-18T10:33:25.011Z,1020.31
2017-02-18T10:34:05.629Z,1020.33
2017-02-18T10:34:46.209Z,1020.37
2017-02-18T10:35:26.856Z,1020.34
2017-02-18T10:36:07.471Z,1020.35
2017-02-18T10:36:48.145Z,1020.3
2017-02-18T10:37:28.777Z,1020.34
2017-02-18T10:38:09.360Z,1020.32
2017-02-18T10:38:49.977Z,1020.34
2017-02-18T10:39:31.020Z,1020.32
2017-02-18T10:40:12.132Z,1020.28
2017-02-18T10:40:53.018Z,1020.3
2017-02-18T10:41:33.747Z,1020.28
2017-02-18T10:42:14.414Z,1020.3
2017-02-18T10:42:55.036Z,1020.28
2017-02-18T10:43:35.664Z,1020.26
2017-02-18T10:44:16.269Z,1020.25
2017-02-18T10:44:56.962Z,1020.27
2017-02-18T10:45:37.644Z,1020.24
2017-02-18T10:46:18.293Z,1020.26
2017-02-18T10:46:58.923Z,1020.26
2017-02-18T10:47:39.608Z,1020.22
2017-02-18T10:48:20.473Z,1020.21
2017-02-18T10:49:01.149Z,1020.24
2017-02-18T10:49:41.758Z,1020.25
2017-02-18T10:50:22.364Z,1020.25
2017-02-18T10:51:03.746Z,1020.24
2017-02-18T10:51:44.438Z,1020.27
2017-02-18T10:52:25.046Z,1020.26
2017-02-18T10:53:05.690Z,1020.26
2017-02-18T10:53:46.304Z,1020.25
2017-02-18T10:54:26.931Z,1020.24
2017-02-18T10:55:07.563Z,1020.18
2017-02-18T10:55:48.171Z,1020.21
2017-02-18T10:56:28.848Z,1020.25
2017-02-18T10:57:09.462Z,1020.24
2017-02-18T10:57:50.087Z,1020.23
2017-02-18T10:58:30.745Z,1020.23
2017-02-18T10:59:11.346Z,1020.24
2017-02-18T10:59:52.002Z,1020.22
2017-02-18T11:00:32.637Z,1020.18
2017-02-18T11:01:13.447Z,1020.22
2017-02-18T11:01:54.113Z,1020.23
2017-02-18T11:02:34.777Z,1020.2
2017-02-18T11:03:15.380Z,1020.2
2017-02-18T11:03:56.083Z,1020.19
2017-02-18T11:04:36.701Z,1020.17
2017-02-18T11:05:17.287Z,1020.16
2017-02-18T11:05:57.909Z,1020.21
2017-02-18T11:06:38.519Z,1020.21
2017-02-18T11:07:19.121Z,1020.15
2017-02-18T11:07:59.745Z,1020.21
2017-02-18T11:08:40.346Z,1020.18
2017-02-18T11:09:20.989Z,1020.16
2017-02-18T11:10:01.574Z,1020.17
2017-02-18T11:10:42.171Z,1020.16
2017-02-18T11:11:22.772Z,1020.2
2017-02-18T11:12:03.417Z,1020.2
2017-02-18T11:12:44.015Z,1020.19
2017-02-18T11:13:24.622Z,1020.21
2017-02-18T11:14:05.248Z,1020.17
2017-02-18T11:14:45.842Z,1020.17
2017-02-18T11:15:26.944Z,1020.2
2017-02-18T11:16:09.713Z,1020.22
2017-02-18T11:16:52.835Z,1020.2
2017-02-18T11:17:33.963Z,1020.22
2017-02-18T11:18:16.420Z,1020.24
2017-02-18T11:18:57.139Z,1020.22
2017-02-18T11:19:38.991Z,1020.25
2017-02-18T11:20:22.620Z,1020.27
2017-02-18T11:21:07.618Z,1020.26
2017-02-18T11:21:48.221Z,1020.25
2017-02-18T11:22:28.819Z,1020.24
2017-02-18T11:23:09.423Z,1020.26
2017-02-18T11:23:50.028Z,1020.29
2017-02-18T11:24:30.633Z,1020.28
2017-02-18T11:25:11.253Z,1020.27
2017-02-18T11:25:51.840Z,1020.27
2017-02-18T11:26:32.470Z,1020.24
2017-02-18T11:27:13.051Z,1020.28
2017-02-18T11:27:53.667Z,1020.29
2017-02-18T11:28:34.275Z,1020.3
2017-02-18T11:29:14.898Z,1020.27
2017-02-18T11:29:55.510Z,1020.21
2017-02-18T11:30:36.114Z,1020.26
2017-02-18T11:31:16.707Z,1020.27
2017-02-18T11:31:57.333Z,1020.23
2017-02-18T11:32:37.959Z,1020.25
2017-02-18T11:33:18.558Z,1020.23
2017-02-18T11:33:59.172Z,1020.25
2017-02-18T11:34:39.793Z,1020.22
2017-02-18T11:35:20.399Z,1020.19
2017-02-18T11:36:01.014Z,1020.24
2017-02-18T11:36:41.617Z,1020.17
2017-02-18T11:37:22.202Z,1020.21
2017-02-18T11:38:02.779Z,1020.18
2017-02-18T11:38:43.361Z,1020.23
2017-02-18T11:39:23.938Z,1020.22
2017-02-18T11:40:04.518Z,1020.24
2017-02-18T11:40:45.137Z,1020.23
2017-02-18T11:41:25.733Z,1020.24
2017-02-18T11:42:06.327Z,1020.27
2017-02-18T11:42:46.937Z,1020.26
2017-02-18T11:43:27.526Z,1020.22
2017-02-18T11:44:08.150Z,1020.19
2017-02-18T11:44:48.740Z,1020.2
2017-02-18T11:45:29.334Z,1020.2
2017-02-18T11:46:09.925Z,1020.22
2017-02-18T11:46:50.541Z,1020.24
2017-02-18T11:47:31.127Z,1020.22
2017-02-18T11:48:11.731Z,1020.28
2017-02-18T11:48:52.365Z,1020.26
2017-02-18T11:49:32.948Z,1020.27
2017-02-18T11:50:13.568Z,1020.26
2017-02-18T11:50:54.170Z,1020.32
2017-02-18T11:51:34.775Z,1020.3
2017-02-18T11:52:15.414Z,1020.26
2017-02-18T11:52:56.011Z,1020.27
2017-02-18T11:53:36.655Z,1020.32
2017-02-18T11:54:17.268Z,1020.35
2017-02-18T11:54:57.910Z,1020.32
2017-02-18T11:55:38.715Z,1020.32
2017-02-18T11:56:19.331Z,1020.29
2017-02-18T11:56:59.931Z,1020.31
2017-02-18T11:57:40.540Z,1020.34
2017-02-18T11:58:21.136Z,1020.36
2017-02-18T11:59:01.746Z,1020.38
2017-02-18T11:59:42.432Z,1020.33
2017-02-18T12:00:23.018Z,1020.39
2017-02-18T12:01:03.662Z,1020.36
2017-02-18T12:01:44.301Z,1020.35
2017-02-18T12:02:24.960Z,1020.34
2017-02-18T12:03:05.578Z,1020.37
2017-02-18T12:03:46.194Z,1020.39
2017-02-18T12:04:26.816Z,1020.42
2017-02-18T12:05:07.425Z,1020.38
2017-02-18T12:05:48.045Z,1020.36
2017-02-18T12:06:28.653Z,1020.36
2017-02-18T12:07:09.312Z,1020.4
2017-02-18T12:07:49.964Z,1020.41
2017-02-18T12:08:30.544Z,1020.37
2017-02-18T12:09:11.146Z,1020.43
2017-02-18T12:09:51.758Z,1020.41
2017-02-18T12:10:32.382Z,1020.42
2017-02-18T12:11:12.986Z,1020.43
2017-02-18T12:11:53.636Z,1020.45
2017-02-18T12:12:34.240Z,1020.43
2017-02-18T12:13:14.836Z,1020.4
2017-02-18T12:13:55.433Z,1020.39
2017-02-18T12:14:36.102Z,1020.45
2017-02-18T12:15:16.745Z,1020.43
2017-02-18T12:15:57.378Z,1020.4
2017-02-18T12:16:37.947Z,1020.42
2017-02-18T12:17:18.617Z,1020.41
2017-02-18T12:17:59.253Z,1020.4
2017-02-18T12:18:39.852Z,1020.41
2017-02-18T12:19:20.446Z,1020.43
2017-02-18T12:20:01.052Z,1020.45
2017-02-18T12:20:41.668Z,1020.42
2017-02-18T12:21:22.257Z,1020.47
2017-02-18T12:22:02.869Z,1020.41
2017-02-18T12:22:43.460Z,1020.4
2017-02-18T12:23:24.055Z,1020.41
2017-02-18T12:24:04.664Z,1020.41
2017-02-18T12:24:45.275Z,1020.4
2017-02-18T12:25:25.879Z,1020.43
2017-02-18T12:26:06.483Z,1020.41
2017-02-18T12:26:47.047Z,1020.35
2017-02-18T12:27:27.626Z,1020.4
2017-02-18T12:28:08.225Z,1020.38
2017-02-18T12:28:48.829Z,1020.39
2017-02-18T12:29:29.412Z,1020.34
2017-02-18T12:30:10.004Z,1020.37
2017-02-18T12:30:50.572Z,1020.35
2017-02-18T12:31:31.174Z,1020.39
2017-02-18T12:32:11.744Z,1020.35
2017-02-18T12:32:52.339Z,1020.4
2017-02-18T12:33:32.951Z,1020.32
2017-02-18T12:34:13.533Z,1020.33
2017-02-18T12:34:54.130Z,1020.37
2017-02-18T12:35:34.717Z,1020.34
2017-02-18T12:36:15.306Z,1020.33
2017-02-18T12:36:55.875Z,1020.3
2017-02-18T12:37:36.457Z,1020.35
2017-02-18T12:38:17.046Z,1020.29
2017-02-18T12:38:57.620Z,1020.31
2017-02-18T12:39:38.218Z,1020.28
2017-02-18T12:40:18.810Z,1020.3
2017-02-18T12:40:59.447Z,1020.27
2017-02-18T12:41:40.037Z,1020.28
2017-02-18T12:42:20.613Z,1020.33
2017-02-18T12:43:01.180Z,1020.25
2017-02-18T12:43:41.798Z,1020.25
2017-02-18T12:44:22.398Z,1020.31
2017-02-18T12:45:03.102Z,1020.29
2017-02-18T12:45:43.677Z,1020.32
2017-02-18T12:46:24.294Z,1020.32
2017-02-18T12:47:04.944Z,1020.28
2017-02-18T12:47:45.507Z,1020.31
2017-02-18T12:48:26.114Z,1020.3
2017-02-18T12:49:06.706Z,1020.29
2017-02-18T12:49:47.279Z,1020.27
2017-02-18T12:50:27.869Z,1020.28
2017-02-18T12:51:08.461Z,1020.27
2017-02-18T12:51:49.051Z,1020.26
2017-02-18T12:52:29.646Z,1020.25
2017-02-18T12:53:10.251Z,1020.24
2017-02-18T12:53:50.861Z,1020.25
2017-02-18T12:54:31.440Z,1020.26
2017-02-18T12:55:12.028Z,1020.26
2017-02-18T12:55:52.619Z,1020.26
2017-02-18T12:56:33.207Z,1020.28
2017-02-18T12:57:13.817Z,1020.19
2017-02-18T12:57:54.409Z,1020.22
2017-02-18T12:58:35.022Z,1020.26
2017-02-18T12:59:15.611Z,1020.23
2017-02-18T12:59:56.192Z,1020.24
2017-02-18T13:00:36.783Z,1020.24
2017-02-18T13:01:17.377Z,1020.26
2017-02-18T13:01:57.966Z,1020.22
2017-02-18T13:02:38.556Z,1020.21
2017-02-18T13:03:19.146Z,1020.23
2017-02-18T13:03:59.733Z,1020.2
2017-02-18T13:04:40.321Z,1020.26
2017-02-18T13:05:20.934Z,1020.23
2017-02-18T13:06:01.498Z,1020.25
2017-02-18T13:06:42.083Z,1020.17
2017-02-18T13:07:22.660Z,1020.2
2017-02-18T13:08:03.257Z,1020.23
2017-02-18T13:08:43.902Z,1020.24
2017-02-18T13:09:26.340Z,1020.17
2017-02-18T13:10:08.387Z,1020.18
2017-02-18T13:10:50.284Z,1020.13
2017-02-18T13:11:30.876Z,1020.15
2017-02-18T13:12:11.484Z,1020.17
2017-02-18T13:12:52.116Z,1020.15
2017-02-18T13:13:32.722Z,1020.12
2017-02-18T13:14:13.335Z,1020.11
2017-02-18T13:14:53.932Z,1020.12
2017-02-18T13:15:34.541Z,1020.1
2017-02-18T13:16:15.141Z,1020.11
2017-02-18T13:16:55.734Z,1020.12
2017-02-18T13:17:36.321Z,1020.1
2017-02-18T13:18:16.939Z,1020.09
2017-02-18T13:18:57.617Z,1020.08
2017-02-18T13:19:38.212Z,1020.12
2017-02-18T13:20:18.804Z,1020.1
2017-02-18T13:20:59.705Z,1020.1
